createdAt,value
2023-05-18T00:05:02.783Z,65.95
2023-05-18T00:15:27.974Z,66.33
2023-05-18T00:25:52.966Z,66.66
2023-05-18T00:36:22.088Z,66.64
2023-05-18T00:46:50.630Z,67.15
2023-05-18T00:57:19.604Z,67.54
2023-05-18T01:07:45.510Z,67.81
2023-05-18T01:18:35.227Z,68.59
2023-05-18T01:29:03.486Z,68.75
2023-05-18T01:39:29.129Z,68.60
2023-05-18T01:50:00.335Z,68.62
2023-05-18T02:00:28.667Z,68.33
2023-05-18T02:10:54.847Z,68.25
2023-05-18T02:21:20.449Z,68.52
2023-05-18T02:31:46.311Z,68.91
2023-05-18T02:42:13.457Z,68.98
2023-05-18T02:52:40.023Z,69.30
2023-05-18T03:03:06.233Z,69.53
2023-05-18T03:13:33.447Z,69.85
2023-05-18T03:24:01.606Z,70.14
2023-05-18T03:34:27.817Z,70.89
2023-05-18T03:44:54.080Z,70.99
2023-05-18T03:55:24.890Z,70.67
2023-05-18T04:05:52.314Z,70.16
2023-05-18T04:16:40.789Z,70.24
2023-05-18T04:27:09.977Z,70.46
2023-05-18T04:38:07.472Z,71.31
2023-05-18T04:48:33.787Z,70.64
2023-05-18T04:59:03.036Z,69.81
2023-05-18T05:09:59.004Z,69.28
2023-05-18T05:20:27.917Z,69.01
2023-05-18T05:30:54.496Z,68.44
2023-05-18T05:41:40.664Z,67.88
2023-05-18T05:52:05.976Z,67.29
2023-05-18T06:02:34.556Z,66.17
2023-05-18T06:13:01.399Z,64.50
2023-05-18T06:23:48.911Z,62.36
2023-05-18T06:34:43.245Z,60.02
2023-05-18T06:45:09.287Z,57.34
2023-05-18T06:55:58.590Z,53.91
2023-05-18T07:06:25.805Z,52.80
2023-05-18T07:16:50.929Z,53.56
2023-05-18T07:27:16.497Z,52.36
2023-05-18T07:38:02.416Z,51.72
2023-05-18T07:48:27.215Z,52.70
2023-05-18T07:58:55.150Z,51.85
2023-05-18T08:09:20.030Z,52.16
2023-05-18T08:19:44.663Z,50.88
2023-05-18T08:30:21.989Z,48.49
2023-05-18T08:41:43.311Z,47.86
2023-05-18T08:52:09.343Z,47.53
2023-05-18T09:02:38.768Z,48.56
2023-05-18T09:13:10.827Z,46.74
2023-05-18T09:24:36.404Z,46.84
2023-05-18T09:35:23.260Z,46.23
2023-05-18T09:45:50.934Z,45.86
2023-05-18T09:56:18.194Z,44.31
2023-05-18T10:06:52.588Z,44.02
2023-05-18T10:17:22.738Z,44.86
2023-05-18T10:27:50.375Z,42.85
2023-05-18T10:38:20.215Z,42.62
2023-05-18T10:48:49.033Z,44.06
2023-05-18T10:59:15.486Z,44.11
2023-05-18T11:09:45.716Z,42.33
2023-05-18T11:20:15.032Z,41.67
2023-05-18T11:30:52.137Z,42.77
2023-05-18T11:41:29.827Z,43.20
2023-05-18T11:52:03.453Z,41.72
2023-05-18T12:02:35.698Z,40.83
2023-05-18T12:13:02.717Z,41.65
2023-05-18T12:23:42.658Z,42.36
2023-05-18T12:34:08.171Z,41.17
2023-05-18T12:44:36.017Z,41.95
2023-05-18T12:55:05.811Z,40.69
2023-05-18T13:05:31.219Z,41.09
2023-05-18T13:16:00.075Z,41.87
2023-05-18T13:26:27.409Z,40.99
2023-05-18T13:36:52.504Z,42.54
2023-05-18T13:47:18.325Z,40.94
2023-05-18T13:57:46.183Z,41.06
2023-05-18T14:08:11.562Z,41.98
2023-05-18T14:18:37.756Z,41.41
2023-05-18T14:29:06.595Z,40.70
2023-05-18T14:39:32.666Z,39.70
2023-05-18T14:49:58.006Z,39.03
2023-05-18T15:01:04.737Z,39.03
2023-05-18T15:11:49.781Z,37.34
2023-05-18T15:22:16.102Z,38.01
2023-05-18T15:32:46.398Z,38.22
2023-05-18T15:43:11.792Z,35.51
2023-05-18T15:53:36.957Z,36.32
2023-05-18T16:04:02.185Z,38.06
2023-05-18T16:14:26.447Z,38.16
2023-05-18T16:24:51.473Z,37.02
2023-05-18T16:35:16.429Z,38.68
2023-05-18T16:46:21.277Z,37.13
2023-05-18T16:56:46.180Z,37.50
2023-05-18T17:08:11.878Z,38.04
2023-05-18T17:19:41.506Z,37.08
2023-05-18T17:30:10.469Z,37.69
2023-05-18T17:41:12.869Z,38.27
2023-05-18T17:51:38.637Z,37.47
2023-05-18T18:02:05.115Z,37.54
2023-05-18T18:12:35.138Z,38.78
2023-05-18T18:23:02.139Z,38.71
2023-05-18T18:33:27.561Z,40.15
2023-05-18T18:43:55.466Z,41.32
2023-05-18T18:54:20.837Z,43.50
2023-05-18T19:04:54.633Z,44.92
2023-05-18T19:15:21.712Z,47.06
2023-05-18T19:25:46.628Z,48.62
2023-05-18T19:42:49.940Z,51.44
2023-05-18T19:53:15.285Z,52.65
2023-05-18T20:03:43.185Z,53.33
2023-05-18T20:14:08.336Z,53.74
2023-05-18T20:24:33.358Z,53.78
2023-05-18T20:34:58.149Z,54.21
2023-05-18T20:45:23.463Z,54.25
2023-05-18T20:55:49.163Z,55.06
2023-05-18T21:06:14.623Z,55.71
2023-05-18T21:16:41.123Z,56.52
2023-05-18T21:27:07.058Z,57.22
2023-05-18T21:37:35.677Z,57.74
2023-05-18T21:48:01.913Z,58.12
2023-05-18T21:58:27.550Z,58.61
2023-05-18T22:08:52.770Z,58.82
2023-05-18T22:19:17.991Z,59.46
2023-05-18T22:29:42.919Z,60.16
2023-05-18T22:40:10.410Z,60.60
2023-05-18T22:50:36.300Z,61.21
2023-05-18T23:01:01.026Z,61.93
2023-05-18T23:11:25.847Z,62.43
2023-05-18T23:21:50.750Z,62.69
2023-05-18T23:32:16.057Z,63.08
2023-05-18T23:43:33.257Z,63.76
2023-05-18T23:54:35.302Z,64.75
